createdAt,value
2024-05-09T00:01:25.706Z,100.00
2024-05-09T00:03:57.758Z,100.00
2024-05-09T00:06:27.222Z,100.00
2024-05-09T00:08:56.566Z,100.00
2024-05-09T00:11:26.104Z,100.00
2024-05-09T00:13:55.530Z,100.00
2024-05-09T00:16:24.899Z,100.00
2024-05-09T00:18:56.972Z,100.00
2024-05-09T00:21:26.372Z,100.00
2024-05-09T00:23:55.764Z,100.00
2024-05-09T00:26:25.219Z,100.00
2024-05-09T00:28:54.680Z,100.00
2024-05-09T00:31:24.035Z,100.00
2024-05-09T00:33:53.525Z,100.00
2024-05-09T00:36:25.521Z,100.00
2024-05-09T00:38:54.856Z,100.00
2024-05-09T00:41:24.331Z,100.00
2024-05-09T00:43:53.776Z,100.00
2024-05-09T00:46:23.669Z,100.00
2024-05-09T00:48:53.201Z,100.00
2024-05-09T00:51:25.290Z,100.00
2024-05-09T00:53:54.682Z,100.00
2024-05-09T00:56:24.815Z,100.00
2024-05-09T00:58:54.611Z,100.00
2024-05-09T01:01:27.709Z,100.00
2024-05-09T01:03:57.595Z,100.00
2024-05-09T01:06:29.659Z,100.00
2024-05-09T01:08:59.068Z,100.00
2024-05-09T01:11:36.092Z,100.00
2024-05-09T01:14:05.558Z,100.00
2024-05-09T01:16:35.225Z,100.00
2024-05-09T01:19:06.743Z,100.00
2024-05-09T01:21:43.054Z,100.00
2024-05-09T01:24:14.976Z,100.00
2024-05-09T01:26:44.318Z,100.00
2024-05-09T01:29:13.762Z,100.00
2024-05-09T01:31:43.303Z,100.00
2024-05-09T01:34:12.847Z,100.00
2024-05-09T01:36:42.198Z,100.00
2024-05-09T01:39:11.644Z,100.00
2024-05-09T01:41:43.647Z,100.00
2024-05-09T01:44:13.027Z,100.00
2024-05-09T01:46:42.432Z,100.00
2024-05-09T01:49:11.861Z,100.00
2024-05-09T01:51:41.315Z,100.00
2024-05-09T01:54:10.780Z,100.00
2024-05-09T01:56:42.745Z,100.00
2024-05-09T01:59:12.755Z,100.00
2024-05-09T02:01:56.252Z,100.00
2024-05-09T02:04:27.294Z,100.00
2024-05-09T02:06:56.729Z,100.00
2024-05-09T02:09:26.070Z,100.00
2024-05-09T02:11:58.273Z,100.00
2024-05-09T02:14:28.094Z,100.00
2024-05-09T02:16:57.604Z,100.00
2024-05-09T02:19:29.614Z,100.00
2024-05-09T02:21:59.026Z,100.00
2024-05-09T02:24:28.459Z,100.00
2024-05-09T02:27:00.582Z,100.00
2024-05-09T02:29:30.092Z,100.00
2024-05-09T02:31:59.611Z,100.00
2024-05-09T02:34:26.448Z,100.00
2024-05-09T02:36:56.253Z,100.00
2024-05-09T02:39:23.179Z,100.00
2024-05-09T02:41:52.526Z,100.00
2024-05-09T02:44:21.975Z,100.00
2024-05-09T02:46:52.189Z,100.00
2024-05-09T02:49:19.119Z,100.00
2024-05-09T02:51:48.553Z,100.00
2024-05-09T02:54:15.451Z,100.00
2024-05-09T02:56:44.767Z,100.00
2024-05-09T02:59:11.733Z,100.00
2024-05-09T03:01:43.783Z,100.00
2024-05-09T03:04:10.912Z,100.00
2024-05-09T03:06:43.429Z,100.00
2024-05-09T03:09:10.401Z,100.00
2024-05-09T03:11:40.581Z,100.00
2024-05-09T03:14:07.503Z,100.00
2024-05-09T03:16:42.829Z,100.00
2024-05-09T03:19:09.867Z,100.00
2024-05-09T03:21:41.432Z,100.00
2024-05-09T03:24:08.340Z,100.00
2024-05-09T03:26:37.754Z,100.00
2024-05-09T03:29:04.968Z,100.00
2024-05-09T03:31:34.357Z,100.00
2024-05-09T03:34:03.970Z,100.00
2024-05-09T03:36:33.538Z,100.00
2024-05-09T03:39:02.880Z,100.00
2024-05-09T03:41:32.542Z,100.00
2024-05-09T03:43:59.407Z,100.00
2024-05-09T03:46:28.792Z,100.00
2024-05-09T03:48:55.686Z,100.00
2024-05-09T03:51:27.674Z,100.00
2024-05-09T03:53:54.490Z,100.00
2024-05-09T03:56:24.089Z,100.00
2024-05-09T03:58:50.969Z,100.00
2024-05-09T04:01:20.413Z,100.00
2024-05-09T04:03:47.405Z,100.00
2024-05-09T04:06:22.956Z,100.00
2024-05-09T04:08:52.390Z,100.00
2024-05-09T04:11:21.961Z,100.00
2024-05-09T04:13:48.803Z,100.00
2024-05-09T04:16:18.295Z,100.00
2024-05-09T04:18:45.163Z,100.00
2024-05-09T04:21:14.626Z,100.00
2024-05-09T04:23:41.514Z,100.00
2024-05-09T04:26:13.941Z,100.00
2024-05-09T04:28:40.774Z,100.00
2024-05-09T04:31:10.184Z,100.00
2024-05-09T04:33:37.145Z,100.00
2024-05-09T04:36:07.082Z,100.00
2024-05-09T04:38:34.004Z,100.00
2024-05-09T04:41:03.940Z,100.00
2024-05-09T04:43:35.171Z,100.00
2024-05-09T04:46:04.589Z,100.00
2024-05-09T04:48:31.552Z,100.00
2024-05-09T04:51:01.060Z,100.00
2024-05-09T04:53:27.962Z,100.00
2024-05-09T04:55:57.625Z,100.00
2024-05-09T04:58:24.500Z,100.00
2024-05-09T05:00:56.483Z,100.00
2024-05-09T05:03:23.538Z,100.00
2024-05-09T05:05:53.155Z,100.00
2024-05-09T05:08:20.196Z,100.00
2024-05-09T05:10:50.380Z,100.00
2024-05-09T05:13:20.248Z,100.00
2024-05-09T05:15:52.488Z,100.00
2024-05-09T05:18:22.516Z,100.00
2024-05-09T05:20:52.613Z,100.00
2024-05-09T05:23:20.866Z,100.00
2024-05-09T05:25:52.179Z,100.00
2024-05-09T05:28:19.715Z,100.00
2024-05-09T05:30:49.493Z,100.00
2024-05-09T05:33:18.719Z,100.00
2024-05-09T05:35:51.429Z,100.00
2024-05-09T05:38:18.356Z,100.00
2024-05-09T05:40:47.933Z,100.00
2024-05-09T05:43:18.641Z,100.00
2024-05-09T05:45:48.355Z,100.00
2024-05-09T05:48:16.900Z,100.00
2024-05-09T05:50:47.336Z,100.00
2024-05-09T05:53:16.856Z,100.00
2024-05-09T05:55:46.282Z,100.00
2024-05-09T05:58:14.352Z,100.00
2024-05-09T06:00:44.446Z,100.00
2024-05-09T06:03:12.718Z,100.00
2024-05-09T06:05:43.319Z,100.00
2024-05-09T06:08:10.570Z,100.00
2024-05-09T06:10:42.855Z,100.00
2024-05-09T06:13:11.057Z,100.00
2024-05-09T06:15:41.112Z,100.00
2024-05-09T06:18:10.207Z,100.00
2024-05-09T06:20:41.868Z,100.00
2024-05-09T06:23:10.493Z,100.00
2024-05-09T06:25:44.211Z,100.00
2024-05-09T06:28:11.323Z,100.00
2024-05-09T06:30:42.635Z,100.00
2024-05-09T06:33:13.346Z,100.00
2024-05-09T06:35:45.232Z,100.00
2024-05-09T06:38:12.549Z,100.00
2024-05-09T06:40:45.065Z,100.00
2024-05-09T06:43:12.520Z,100.00
2024-05-09T06:45:42.059Z,100.00
2024-05-09T06:48:09.810Z,100.00
2024-05-09T06:50:40.363Z,100.00
2024-05-09T06:53:08.186Z,100.00
2024-05-09T06:55:38.547Z,100.00
2024-05-09T06:58:08.930Z,100.00
2024-05-09T07:00:41.023Z,100.00
2024-05-09T07:03:09.955Z,100.00
2024-05-09T07:05:40.299Z,100.00
2024-05-09T07:08:08.185Z,100.00
2024-05-09T07:10:38.516Z,100.00
2024-05-09T07:13:11.242Z,100.00
2024-05-09T07:15:40.826Z,100.00
2024-05-09T07:18:10.170Z,100.00
2024-05-09T07:20:39.721Z,100.00
2024-05-09T07:23:09.209Z,100.00
2024-05-09T07:25:38.591Z,100.00
2024-05-09T07:28:09.664Z,100.00
2024-05-09T07:30:41.662Z,100.00
2024-05-09T07:33:08.742Z,100.00
2024-05-09T07:35:38.519Z,100.00
2024-05-09T07:38:05.428Z,100.00
2024-05-09T07:40:36.900Z,100.00
2024-05-09T07:43:04.475Z,100.00
2024-05-09T07:53:37.167Z,100.00
2024-05-09T07:56:01.219Z,99.93
2024-05-09T07:58:28.746Z,94.06
2024-05-09T08:00:58.228Z,98.06
2024-05-09T08:03:27.778Z,93.93
2024-05-09T08:05:57.404Z,96.16
2024-05-09T08:08:24.146Z,94.55
2024-05-09T08:10:53.774Z,94.73
2024-05-09T08:13:20.742Z,92.24
2024-05-09T08:15:51.712Z,90.03
2024-05-09T08:18:19.854Z,83.71
2024-05-09T08:20:52.384Z,82.89
2024-05-09T08:23:19.176Z,83.99
2024-05-09T08:25:48.540Z,86.10
2024-05-09T08:28:15.679Z,85.58
2024-05-09T08:30:45.633Z,85.37
2024-05-09T08:33:12.613Z,86.64
2024-05-09T08:35:41.991Z,82.32
2024-05-09T08:38:11.512Z,79.16
2024-05-09T08:40:41.149Z,78.57
2024-05-09T08:43:11.317Z,77.62
2024-05-09T08:45:44.007Z,73.90
2024-05-09T08:48:14.336Z,72.09
2024-05-09T08:50:45.823Z,73.28
2024-05-09T08:53:15.768Z,72.96
2024-05-09T08:55:45.554Z,72.61
2024-05-09T08:58:16.225Z,71.53
2024-05-09T09:00:46.736Z,70.77
2024-05-09T09:03:17.441Z,71.82
2024-05-09T09:05:55.590Z,66.93
2024-05-09T09:08:26.160Z,68.21
2024-05-09T09:11:00.135Z,68.74
2024-05-09T09:13:27.628Z,67.81
2024-05-09T09:15:58.613Z,64.27
2024-05-09T09:18:26.981Z,62.97
2024-05-09T09:20:56.837Z,64.96
2024-05-09T09:23:28.279Z,59.98
2024-05-09T09:26:01.157Z,60.53
2024-05-09T09:28:28.156Z,56.96
2024-05-09T09:31:04.101Z,57.26
2024-05-09T09:33:31.734Z,56.59
2024-05-09T09:36:01.800Z,55.73
2024-05-09T09:38:31.674Z,57.17
2024-05-09T09:41:04.049Z,56.68
2024-05-09T09:43:32.905Z,53.37
2024-05-09T09:46:03.476Z,52.03
2024-05-09T09:48:31.466Z,52.33
2024-05-09T09:51:00.959Z,55.31
2024-05-09T09:53:31.903Z,51.88
2024-05-09T09:56:01.627Z,50.86
2024-05-09T09:58:30.002Z,48.47
2024-05-09T10:01:00.579Z,49.13
2024-05-09T10:03:27.936Z,52.28
2024-05-09T10:05:58.210Z,50.34
2024-05-09T10:08:25.352Z,49.60
2024-05-09T10:10:57.977Z,50.03
2024-05-09T10:13:33.131Z,50.08
2024-05-09T10:16:10.274Z,49.95
2024-05-09T10:18:37.745Z,52.82
2024-05-09T10:21:17.879Z,50.58
2024-05-09T10:23:45.678Z,48.96
2024-05-09T10:26:17.707Z,48.76
2024-05-09T10:28:45.929Z,47.03
2024-05-09T10:31:17.559Z,48.36
2024-05-09T10:33:49.558Z,49.34
2024-05-09T10:36:23.255Z,47.19
2024-05-09T10:38:50.923Z,48.00
2024-05-09T10:41:24.737Z,47.74
2024-05-09T10:43:52.279Z,49.44
2024-05-09T10:46:22.093Z,47.18
2024-05-09T10:48:49.541Z,46.44
2024-05-09T10:51:21.427Z,46.59
2024-05-09T10:53:48.580Z,46.77
2024-05-09T10:56:18.852Z,46.98
2024-05-09T10:58:51.500Z,45.37
2024-05-09T11:01:21.160Z,44.98
2024-05-09T11:03:48.750Z,44.58
2024-05-09T11:06:19.395Z,44.15
2024-05-09T11:08:46.944Z,46.80
2024-05-09T11:11:16.486Z,46.20
2024-05-09T11:13:43.304Z,45.02
2024-05-09T11:16:23.285Z,42.89
2024-05-09T11:18:54.561Z,43.90
2024-05-09T11:21:24.387Z,43.79
2024-05-09T11:23:51.601Z,41.63
2024-05-09T11:26:22.631Z,41.14
2024-05-09T11:28:50.535Z,43.31
2024-05-09T11:31:23.108Z,38.68
2024-05-09T11:33:50.345Z,38.94
2024-05-09T11:36:19.926Z,39.31
2024-05-09T11:38:46.759Z,40.36
2024-05-09T11:41:19.764Z,39.64
2024-05-09T11:43:46.542Z,40.37
2024-05-09T11:46:16.168Z,40.60
2024-05-09T11:48:45.756Z,38.55
2024-05-09T11:51:15.189Z,39.40
2024-05-09T11:53:41.943Z,39.51
2024-05-09T11:56:11.965Z,41.60
2024-05-09T11:58:39.563Z,40.46
2024-05-09T12:01:09.041Z,39.28
2024-05-09T12:03:37.846Z,38.47
2024-05-09T12:06:10.121Z,36.44
2024-05-09T12:08:36.982Z,34.89
2024-05-09T12:11:06.762Z,34.15
2024-05-09T12:13:33.628Z,34.39
2024-05-09T12:16:03.473Z,34.62
2024-05-09T12:18:30.414Z,34.18
2024-05-09T12:20:59.818Z,35.30
2024-05-09T12:23:29.208Z,34.93
2024-05-09T12:25:58.569Z,34.33
2024-05-09T12:28:26.481Z,34.09
2024-05-09T12:30:55.962Z,33.15
2024-05-09T12:33:22.888Z,35.00
2024-05-09T12:35:52.230Z,31.71
2024-05-09T12:38:19.015Z,35.03
2024-05-09T12:40:51.224Z,34.89
2024-05-09T12:43:18.175Z,33.99
2024-05-09T12:45:47.604Z,33.30
2024-05-09T12:48:14.654Z,32.48
2024-05-09T12:50:44.243Z,33.38
2024-05-09T12:53:11.170Z,33.62
2024-05-09T12:55:48.554Z,33.13
2024-05-09T12:58:25.918Z,33.64
2024-05-09T13:00:55.534Z,32.49
2024-05-09T13:03:22.588Z,30.65
2024-05-09T13:05:52.579Z,30.02
2024-05-09T13:08:20.412Z,27.95
2024-05-09T13:10:50.191Z,27.12
2024-05-09T13:13:17.284Z,25.73
2024-05-09T13:15:49.487Z,25.55
2024-05-09T13:18:16.333Z,24.44
2024-05-09T13:20:46.601Z,24.15
2024-05-09T13:23:13.445Z,24.56
2024-05-09T13:25:43.067Z,26.20
2024-05-09T13:28:10.082Z,25.49
2024-05-09T13:30:41.851Z,23.97
2024-05-09T13:33:14.360Z,24.19
2024-05-09T13:35:48.719Z,23.82
2024-05-09T13:38:18.512Z,22.79
2024-05-09T13:40:48.539Z,22.35
2024-05-09T13:43:15.868Z,20.49
2024-05-09T13:45:45.467Z,19.58
2024-05-09T13:48:15.022Z,19.89
2024-05-09T13:50:44.515Z,19.67
2024-05-09T13:53:11.742Z,19.20
2024-05-09T13:55:41.427Z,18.03
2024-05-09T13:58:09.171Z,17.58
2024-05-09T14:00:46.216Z,17.29
2024-05-09T14:03:20.002Z,18.38
2024-05-09T14:05:51.559Z,16.71
2024-05-09T14:08:19.955Z,16.28
2024-05-09T14:10:50.613Z,17.41
2024-05-09T14:13:17.787Z,16.27
2024-05-09T14:15:48.259Z,15.98
2024-05-09T14:18:18.014Z,15.01
2024-05-09T14:20:47.531Z,16.09
2024-05-09T14:23:14.409Z,15.08
2024-05-09T14:25:45.019Z,15.24
2024-05-09T14:28:13.488Z,16.17
2024-05-09T14:30:43.325Z,15.95
2024-05-09T14:33:11.094Z,16.24
2024-05-09T14:35:43.267Z,16.92
2024-05-09T14:38:10.605Z,16.65
2024-05-09T14:40:43.579Z,17.09
2024-05-09T14:43:12.221Z,17.20
2024-05-09T14:45:42.491Z,17.57
2024-05-09T14:48:10.261Z,17.30
2024-05-09T14:50:41.020Z,16.96
2024-05-09T14:53:12.188Z,18.35
2024-05-09T14:55:43.547Z,17.39
2024-05-09T14:58:11.664Z,18.03
2024-05-09T15:00:47.711Z,15.92
2024-05-09T15:03:17.760Z,15.87
2024-05-09T15:05:47.773Z,15.69
2024-05-09T15:08:17.982Z,14.82
2024-05-09T15:10:49.624Z,14.51
2024-05-09T15:13:17.421Z,14.36
2024-05-09T15:15:47.100Z,15.03
2024-05-09T15:18:14.244Z,13.85
2024-05-09T15:20:44.521Z,11.99
2024-05-09T15:23:11.694Z,13.41
2024-05-09T15:25:44.561Z,14.13
2024-05-09T15:28:11.403Z,13.74
2024-05-09T15:30:42.946Z,14.33
2024-05-09T15:33:12.358Z,14.73
2024-05-09T15:35:42.469Z,13.79
2024-05-09T15:38:10.197Z,13.21
2024-05-09T15:40:40.920Z,13.35
2024-05-09T15:43:11.672Z,13.63
2024-05-09T15:45:41.894Z,13.58
2024-05-09T15:48:10.557Z,12.41
2024-05-09T15:50:42.487Z,13.36
2024-05-09T15:53:10.860Z,13.63
2024-05-09T15:55:41.204Z,13.05
2024-05-09T15:58:11.214Z,12.66
2024-05-09T16:00:43.406Z,13.01
2024-05-09T16:03:13.979Z,13.62
2024-05-09T16:05:47.587Z,12.70
2024-05-09T16:08:15.573Z,13.16
2024-05-09T16:10:46.451Z,13.28
2024-05-09T16:13:17.425Z,13.50
2024-05-09T16:15:47.589Z,13.40
2024-05-09T16:18:14.801Z,12.86
2024-05-09T16:20:46.351Z,12.82
2024-05-09T16:23:15.257Z,14.10
2024-05-09T16:25:47.515Z,14.36
2024-05-09T16:28:18.950Z,14.12
2024-05-09T16:30:48.536Z,14.15
2024-05-09T16:33:15.480Z,13.09
2024-05-09T16:35:44.880Z,12.86
2024-05-09T16:38:12.494Z,13.86
2024-05-09T16:40:42.005Z,13.36
2024-05-09T16:43:10.024Z,13.93
2024-05-09T16:45:43.946Z,13.77
2024-05-09T16:48:11.464Z,13.54
2024-05-09T16:50:40.980Z,13.68
2024-05-09T16:53:08.406Z,13.73
2024-05-09T16:55:38.498Z,14.19
2024-05-09T16:58:07.997Z,14.88
2024-05-09T17:00:42.103Z,14.29
2024-05-09T17:03:15.127Z,14.59
2024-05-09T17:05:46.866Z,14.71
2024-05-09T17:08:15.769Z,15.67
2024-05-09T17:10:45.406Z,14.84
2024-05-09T17:13:15.141Z,14.82
2024-05-09T17:15:44.743Z,14.04
2024-05-09T17:18:17.224Z,14.44
2024-05-09T17:20:44.013Z,13.90
2024-05-09T17:23:14.975Z,15.21
2024-05-09T17:25:42.970Z,16.06
2024-05-09T17:28:12.941Z,15.47
2024-05-09T17:30:41.833Z,15.71
2024-05-09T17:33:13.425Z,15.41
2024-05-09T17:35:45.903Z,15.32
2024-05-09T17:38:15.714Z,15.86
2024-05-09T17:40:42.604Z,15.35
2024-05-09T17:43:12.817Z,15.35
2024-05-09T17:45:41.298Z,16.44
2024-05-09T17:48:12.474Z,15.08
2024-05-09T17:50:40.092Z,16.79
2024-05-09T17:53:14.457Z,16.54
2024-05-09T17:55:41.438Z,16.97
2024-05-09T17:58:11.344Z,17.28
2024-05-09T18:00:41.286Z,17.64
2024-05-09T18:03:14.161Z,18.12
2024-05-09T18:05:42.707Z,18.45
2024-05-09T18:08:15.770Z,19.12
2024-05-09T18:10:42.939Z,19.63
2024-05-09T18:13:13.481Z,20.21
2024-05-09T18:15:41.804Z,21.40
2024-05-09T18:18:11.763Z,21.33
2024-05-09T18:20:43.811Z,22.62
2024-05-09T18:23:19.430Z,24.33
2024-05-09T18:25:46.986Z,26.09
2024-05-09T18:28:17.759Z,27.95
2024-05-09T18:30:44.993Z,29.98
2024-05-09T18:33:14.935Z,30.70
2024-05-09T18:35:43.389Z,33.61
2024-05-09T18:38:13.346Z,34.47
2024-05-09T18:40:44.730Z,36.87
2024-05-09T18:43:16.684Z,38.74
2024-05-09T18:45:44.443Z,40.16
2024-05-09T18:48:14.367Z,41.86
2024-05-09T18:50:41.829Z,42.66
2024-05-09T18:53:13.456Z,43.33
2024-05-09T18:55:43.460Z,44.90
2024-05-09T18:58:17.007Z,46.38
2024-05-09T19:00:46.628Z,47.16
2024-05-09T19:03:18.871Z,48.50
2024-05-09T19:05:46.589Z,49.25
2024-05-09T19:08:16.992Z,50.30
2024-05-09T19:10:46.767Z,51.12
2024-05-09T19:13:16.705Z,51.84
2024-05-09T19:15:44.138Z,52.36
2024-05-09T19:18:15.501Z,53.53
2024-05-09T19:20:42.993Z,54.32
2024-05-09T19:23:12.859Z,55.91
2024-05-09T19:25:39.834Z,56.71
2024-05-09T19:28:12.027Z,57.18
2024-05-09T19:30:41.904Z,57.86
2024-05-09T19:33:13.932Z,59.12
2024-05-09T19:35:41.616Z,60.56
2024-05-09T19:38:11.676Z,60.17
2024-05-09T19:40:38.529Z,61.15
2024-05-09T19:43:08.029Z,62.30
2024-05-09T19:45:37.486Z,62.96
2024-05-09T19:48:09.543Z,63.54
2024-05-09T19:50:42.180Z,65.29
2024-05-09T19:53:14.017Z,65.56
2024-05-09T19:55:41.754Z,66.71
2024-05-09T19:58:12.870Z,67.07
2024-05-09T20:00:44.100Z,67.91
2024-05-09T20:03:16.128Z,68.29
2024-05-09T20:05:45.377Z,68.77
2024-05-09T20:08:15.627Z,70.70
2024-05-09T20:10:42.687Z,70.93
2024-05-09T20:13:12.204Z,71.48
2024-05-09T20:15:39.737Z,71.39
2024-05-09T20:18:12.173Z,72.30
2024-05-09T20:20:42.394Z,72.87
2024-05-09T20:23:13.609Z,72.83
2024-05-09T20:25:40.581Z,73.08
2024-05-09T20:28:10.575Z,72.48
2024-05-09T20:30:37.725Z,72.71
2024-05-09T20:33:09.456Z,73.41
2024-05-09T20:35:39.551Z,73.83
2024-05-09T20:38:09.306Z,73.52
2024-05-09T20:40:38.732Z,73.89
2024-05-09T20:43:10.780Z,74.22
2024-05-09T20:45:38.277Z,74.38
2024-05-09T20:48:09.758Z,74.57
2024-05-09T20:50:42.820Z,75.42
2024-05-09T20:53:11.473Z,74.41
2024-05-09T20:55:41.306Z,75.04
2024-05-09T20:58:08.474Z,75.25
2024-05-09T21:00:42.050Z,76.43
2024-05-09T21:03:12.739Z,76.43
2024-05-09T21:05:45.353Z,76.00
2024-05-09T21:08:12.388Z,77.18
2024-05-09T21:10:41.931Z,77.24
2024-05-09T21:13:08.867Z,78.16
2024-05-09T21:15:38.459Z,78.76
2024-05-09T21:18:05.876Z,79.09
2024-05-09T21:20:35.515Z,79.55
2024-05-09T21:23:05.301Z,80.83
2024-05-09T21:25:34.847Z,81.04
2024-05-09T21:28:01.899Z,81.18
2024-05-09T21:30:40.210Z,82.12
2024-05-09T21:33:11.456Z,83.09
2024-05-09T21:35:43.271Z,82.26
2024-05-09T21:38:14.498Z,83.02
2024-05-09T21:40:44.914Z,83.95
2024-05-09T21:43:12.168Z,83.92
2024-05-09T21:45:41.594Z,85.02
2024-05-09T21:48:09.006Z,85.91
2024-05-09T21:50:41.203Z,86.25
2024-05-09T21:53:12.832Z,87.11
2024-05-09T21:55:43.074Z,87.68
2024-05-09T21:58:10.537Z,87.57
2024-05-09T22:00:42.791Z,87.54
2024-05-09T22:03:11.349Z,88.14
2024-05-09T22:05:44.135Z,88.39
2024-05-09T22:08:13.910Z,88.96
2024-05-09T22:10:43.582Z,89.67
2024-05-09T22:13:10.668Z,90.13
2024-05-09T22:15:41.255Z,91.00
2024-05-09T22:18:09.968Z,91.74
2024-05-09T22:20:44.210Z,91.92
2024-05-09T22:23:15.305Z,92.64
2024-05-09T22:25:44.833Z,93.12
2024-05-09T22:28:14.427Z,93.89
2024-05-09T22:30:45.978Z,94.43
2024-05-09T22:33:13.322Z,95.23
2024-05-09T22:35:42.953Z,95.41
2024-05-09T22:38:09.849Z,96.23
2024-05-09T22:40:47.707Z,96.90
2024-05-09T22:43:18.451Z,97.00
2024-05-09T22:45:48.898Z,98.22
2024-05-09T22:48:15.859Z,98.65
2024-05-09T22:50:45.410Z,99.29
2024-05-09T22:53:12.200Z,99.21
2024-05-09T22:55:44.338Z,99.63
2024-05-09T22:58:11.172Z,99.78
2024-05-09T23:00:40.956Z,100.00
2024-05-09T23:03:08.089Z,100.00
2024-05-09T23:05:37.775Z,100.00
2024-05-09T23:08:05.198Z,100.00
2024-05-09T23:10:37.627Z,100.00
2024-05-09T23:13:10.884Z,100.00
2024-05-09T23:15:37.994Z,100.00
2024-05-09T23:18:08.631Z,100.00
2024-05-09T23:20:39.200Z,100.00
2024-05-09T23:23:11.383Z,100.00
2024-05-09T23:25:38.967Z,100.00
2024-05-09T23:28:11.300Z,100.00
2024-05-09T23:30:40.796Z,100.00
2024-05-09T23:33:12.862Z,100.00
2024-05-09T23:35:41.788Z,100.00
2024-05-09T23:38:11.417Z,100.00
2024-05-09T23:40:40.740Z,100.00
2024-05-09T23:43:14.424Z,100.00
2024-05-09T23:45:42.157Z,100.00
2024-05-09T23:48:12.798Z,100.00
2024-05-09T23:50:40.662Z,100.00
2024-05-09T23:53:11.282Z,100.00
2024-05-09T23:55:38.814Z,100.00
2024-05-09T23:58:09.046Z,100.00
